sensor_id;sensor_type;location;lat;lon;timestamp;temperature;humidity
4306;DHT22;2166;49.926;8.608;2022-11-06T00:00:41;7.50;82.70
4306;DHT22;2166;49.926;8.608;2022-11-06T00:03:09;7.50;82.70
4306;DHT22;2166;49.926;8.608;2022-11-06T00:05:38;7.60;82.60
4306;DHT22;2166;49.926;8.608;2022-11-06T00:08:25;7.70;82.50
4306;DHT22;2166;49.926;8.608;2022-11-06T00:10:55;7.80;82.30
4306;DHT22;2166;49.926;8.608;2022-11-06T00:13:24;7.80;82.20
4306;DHT22;2166;49.926;8.608;2022-11-06T00:15:52;7.80;82.10
4306;DHT22;2166;49.926;8.608;2022-11-06T00:18:20;7.60;82.20
4306;DHT22;2166;49.926;8.608;2022-11-06T00:20:48;7.50;82.40
4306;DHT22;2166;49.926;8.608;2022-11-06T00:23:16;7.40;82.50
4306;DHT22;2166;49.926;8.608;2022-11-06T00:25:44;7.30;82.60
4306;DHT22;2166;49.926;8.608;2022-11-06T00:28:14;7.20;82.90
4306;DHT22;2166;49.926;8.608;2022-11-06T00:30:43;7.10;83.00
4306;DHT22;2166;49.926;8.608;2022-11-06T00:33:11;7.00;83.10
4306;DHT22;2166;49.926;8.608;2022-11-06T00:35:40;7.00;83.20
4306;DHT22;2166;49.926;8.608;2022-11-06T00:38:07;6.90;83.30
4306;DHT22;2166;49.926;8.608;2022-11-06T00:40:36;6.80;83.40
4306;DHT22;2166;49.926;8.608;2022-11-06T00:43:04;6.80;83.60
4306;DHT22;2166;49.926;8.608;2022-11-06T00:45:33;6.70;83.60
4306;DHT22;2166;49.926;8.608;2022-11-06T00:48:03;6.70;83.70
4306;DHT22;2166;49.926;8.608;2022-11-06T00:50:33;6.60;83.80
4306;DHT22;2166;49.926;8.608;2022-11-06T00:53:01;6.60;83.80
4306;DHT22;2166;49.926;8.608;2022-11-06T00:55:29;6.60;83.80
4306;DHT22;2166;49.926;8.608;2022-11-06T00:57:56;6.50;83.80
4306;DHT22;2166;49.926;8.608;2022-11-06T01:00:25;6.50;83.80
4306;DHT22;2166;49.926;8.608;2022-11-06T01:02:54;6.50;83.80
4306;DHT22;2166;49.926;8.608;2022-11-06T01:05:22;6.40;83.90
4306;DHT22;2166;49.926;8.608;2022-11-06T01:07:51;6.30;83.70
4306;DHT22;2166;49.926;8.608;2022-11-06T01:10:19;6.30;83.90
4306;DHT22;2166;49.926;8.608;2022-11-06T01:12:46;6.30;83.90
4306;DHT22;2166;49.926;8.608;2022-11-06T01:15:14;6.30;83.90
4306;DHT22;2166;49.926;8.608;2022-11-06T01:17:43;6.30;84.00
4306;DHT22;2166;49.926;8.608;2022-11-06T01:20:12;6.30;84.00
4306;DHT22;2166;49.926;8.608;2022-11-06T01:22:40;6.30;84.00
4306;DHT22;2166;49.926;8.608;2022-11-06T01:25:08;6.30;84.00
4306;DHT22;2166;49.926;8.608;2022-11-06T01:27:36;6.20;84.00
4306;DHT22;2166;49.926;8.608;2022-11-06T01:30:04;6.20;84.00
4306;DHT22;2166;49.926;8.608;2022-11-06T01:32:32;6.20;84.20
4306;DHT22;2166;49.926;8.608;2022-11-06T01:35:00;6.20;84.00
4306;DHT22;2166;49.926;8.608;2022-11-06T01:37:30;6.20;83.90
4306;DHT22;2166;49.926;8.608;2022-11-06T01:39:58;6.20;84.00
4306;DHT22;2166;49.926;8.608;2022-11-06T01:42:26;6.20;83.90
4306;DHT22;2166;49.926;8.608;2022-11-06T01:47:43;6.10;83.90
4306;DHT22;2166;49.926;8.608;2022-11-06T01:50:12;6.10;83.90
4306;DHT22;2166;49.926;8.608;2022-11-06T01:52:43;6.10;83.90
4306;DHT22;2166;49.926;8.608;2022-11-06T01:55:13;6.10;83.80
4306;DHT22;2166;49.926;8.608;2022-11-06T01:57:42;6.10;83.70
4306;DHT22;2166;49.926;8.608;2022-11-06T02:00:11;6.10;83.70
4306;DHT22;2166;49.926;8.608;2022-11-06T02:02:39;6.10;83.70
4306;DHT22;2166;49.926;8.608;2022-11-06T02:05:07;6.00;83.60
4306;DHT22;2166;49.926;8.608;2022-11-06T02:07:35;6.00;83.50
4306;DHT22;2166;49.926;8.608;2022-11-06T02:10:06;5.90;83.50
4306;DHT22;2166;49.926;8.608;2022-11-06T02:12:37;5.90;83.50
4306;DHT22;2166;49.926;8.608;2022-11-06T02:15:08;5.90;83.70
4306;DHT22;2166;49.926;8.608;2022-11-06T02:17:45;5.90;83.60
4306;DHT22;2166;49.926;8.608;2022-11-06T02:20:16;5.80;83.60
4306;DHT22;2166;49.926;8.608;2022-11-06T02:23:02;5.80;83.80
4306;DHT22;2166;49.926;8.608;2022-11-06T02:25:37;5.80;83.70
4306;DHT22;2166;49.926;8.608;2022-11-06T02:28:11;5.70;83.60
4306;DHT22;2166;49.926;8.608;2022-11-06T02:30:42;5.60;83.60
4306;DHT22;2166;49.926;8.608;2022-11-06T02:33:11;5.50;83.60
4306;DHT22;2166;49.926;8.608;2022-11-06T02:35:42;5.50;83.60
4306;DHT22;2166;49.926;8.608;2022-11-06T02:38:15;5.40;83.60
4306;DHT22;2166;49.926;8.608;2022-11-06T02:40:45;5.40;83.80
4306;DHT22;2166;49.926;8.608;2022-11-06T02:43:16;5.50;84.00
4306;DHT22;2166;49.926;8.608;2022-11-06T02:45:45;5.50;84.00
4306;DHT22;2166;49.926;8.608;2022-11-06T02:48:14;5.50;84.10
4306;DHT22;2166;49.926;8.608;2022-11-06T02:50:44;5.50;84.10
4306;DHT22;2166;49.926;8.608;2022-11-06T02:53:17;5.40;84.20
4306;DHT22;2166;49.926;8.608;2022-11-06T02:55:47;5.40;84.20
4306;DHT22;2166;49.926;8.608;2022-11-06T02:58:18;5.40;84.10
4306;DHT22;2166;49.926;8.608;2022-11-06T03:00:49;5.40;84.00
4306;DHT22;2166;49.926;8.608;2022-11-06T03:03:19;5.40;84.20
4306;DHT22;2166;49.926;8.608;2022-11-06T03:05:49;5.50;84.40
4306;DHT22;2166;49.926;8.608;2022-11-06T03:08:20;5.40;84.40
4306;DHT22;2166;49.926;8.608;2022-11-06T03:10:53;5.40;84.30
4306;DHT22;2166;49.926;8.608;2022-11-06T03:13:30;5.40;84.30
4306;DHT22;2166;49.926;8.608;2022-11-06T03:16:01;5.40;84.40
4306;DHT22;2166;49.926;8.608;2022-11-06T03:18:32;5.40;84.20
4306;DHT22;2166;49.926;8.608;2022-11-06T03:21:03;5.40;84.20
4306;DHT22;2166;49.926;8.608;2022-11-06T03:23:33;5.40;84.10
4306;DHT22;2166;49.926;8.608;2022-11-06T03:26:04;5.30;84.10
4306;DHT22;2166;49.926;8.608;2022-11-06T03:28:39;5.30;84.10
4306;DHT22;2166;49.926;8.608;2022-11-06T03:31:10;5.30;83.90
4306;DHT22;2166;49.926;8.608;2022-11-06T03:33:42;5.30;83.90
4306;DHT22;2166;49.926;8.608;2022-11-06T03:36:11;5.30;84.00
4306;DHT22;2166;49.926;8.608;2022-11-06T03:38:42;5.30;84.00
4306;DHT22;2166;49.926;8.608;2022-11-06T03:41:13;5.20;84.00
4306;DHT22;2166;49.926;8.608;2022-11-06T03:43:45;5.20;84.20
4306;DHT22;2166;49.926;8.608;2022-11-06T03:46:14;5.20;84.40
4306;DHT22;2166;49.926;8.608;2022-11-06T03:48:45;5.10;84.40
4306;DHT22;2166;49.926;8.608;2022-11-06T03:51:15;5.10;84.60
4306;DHT22;2166;49.926;8.608;2022-11-06T03:53:44;5.10;84.50
4306;DHT22;2166;49.926;8.608;2022-11-06T03:56:15;5.10;84.60
4306;DHT22;2166;49.926;8.608;2022-11-06T03:58:46;5.10;84.60
4306;DHT22;2166;49.926;8.608;2022-11-06T04:01:15;5.20;84.80
4306;DHT22;2166;49.926;8.608;2022-11-06T04:03:50;5.20;84.70
4306;DHT22;2166;49.926;8.608;2022-11-06T04:06:21;5.20;84.70
4306;DHT22;2166;49.926;8.608;2022-11-06T04:08:50;5.20;84.70
4306;DHT22;2166;49.926;8.608;2022-11-06T04:11:37;5.20;84.70
4306;DHT22;2166;49.926;8.608;2022-11-06T04:14:26;5.20;84.60
4306;DHT22;2166;49.926;8.608;2022-11-06T04:16:55;5.20;84.60
4306;DHT22;2166;49.926;8.608;2022-11-06T04:19:24;5.10;84.60
4306;DHT22;2166;49.926;8.608;2022-11-06T04:21:55;5.20;84.60
4306;DHT22;2166;49.926;8.608;2022-11-06T04:24:30;5.20;84.70
4306;DHT22;2166;49.926;8.608;2022-11-06T04:27:21;5.20;84.70
4306;DHT22;2166;49.926;8.608;2022-11-06T04:29:58;5.10;84.60
4306;DHT22;2166;49.926;8.608;2022-11-06T04:32:29;5.10;84.50
4306;DHT22;2166;49.926;8.608;2022-11-06T04:35:00;5.10;84.50
4306;DHT22;2166;49.926;8.608;2022-11-06T04:37:30;5.10;84.50
4306;DHT22;2166;49.926;8.608;2022-11-06T04:40:04;5.00;84.40
4306;DHT22;2166;49.926;8.608;2022-11-06T04:42:36;5.00;84.30
4306;DHT22;2166;49.926;8.608;2022-11-06T04:45:09;5.00;84.30
4306;DHT22;2166;49.926;8.608;2022-11-06T04:47:38;5.00;84.30
4306;DHT22;2166;49.926;8.608;2022-11-06T04:50:06;5.00;84.40
4306;DHT22;2166;49.926;8.608;2022-11-06T04:52:35;5.00;84.30
4306;DHT22;2166;49.926;8.608;2022-11-06T04:55:05;4.90;84.20
4306;DHT22;2166;49.926;8.608;2022-11-06T04:57:33;4.90;84.20
4306;DHT22;2166;49.926;8.608;2022-11-06T05:00:00;4.80;84.20
4306;DHT22;2166;49.926;8.608;2022-11-06T05:02:31;4.80;84.10
4306;DHT22;2166;49.926;8.608;2022-11-06T05:04:59;4.80;84.10
4306;DHT22;2166;49.926;8.608;2022-11-06T05:07:26;4.70;84.00
4306;DHT22;2166;49.926;8.608;2022-11-06T05:09:54;4.70;84.00
4306;DHT22;2166;49.926;8.608;2022-11-06T05:12:22;4.70;84.10
4306;DHT22;2166;49.926;8.608;2022-11-06T05:14:50;4.70;84.10
4306;DHT22;2166;49.926;8.608;2022-11-06T05:17:18;4.70;84.00
4306;DHT22;2166;49.926;8.608;2022-11-06T05:19:47;4.60;84.00
4306;DHT22;2166;49.926;8.608;2022-11-06T05:22:15;4.50;83.90
4306;DHT22;2166;49.926;8.608;2022-11-06T05:25:00;4.40;83.90
4306;DHT22;2166;49.926;8.608;2022-11-06T05:27:35;4.30;83.80
4306;DHT22;2166;49.926;8.608;2022-11-06T05:30:04;4.10;83.60
4306;DHT22;2166;49.926;8.608;2022-11-06T05:32:32;4.00;83.70
4306;DHT22;2166;49.926;8.608;2022-11-06T05:35:01;3.80;83.60
4306;DHT22;2166;49.926;8.608;2022-11-06T05:37:29;3.70;83.60
4306;DHT22;2166;49.926;8.608;2022-11-06T05:39:57;3.60;83.60
4306;DHT22;2166;49.926;8.608;2022-11-06T05:42:25;3.60;83.70
4306;DHT22;2166;49.926;8.608;2022-11-06T05:44:53;3.40;83.70
4306;DHT22;2166;49.926;8.608;2022-11-06T05:47:21;3.40;83.70
4306;DHT22;2166;49.926;8.608;2022-11-06T05:49:48;3.30;84.00
4306;DHT22;2166;49.926;8.608;2022-11-06T05:52:18;3.30;84.00
4306;DHT22;2166;49.926;8.608;2022-11-06T05:54:46;3.40;84.30
4306;DHT22;2166;49.926;8.608;2022-11-06T05:57:13;3.40;84.30
4306;DHT22;2166;49.926;8.608;2022-11-06T05:59:41;3.40;84.10
4306;DHT22;2166;49.926;8.608;2022-11-06T06:02:09;3.30;84.10
4306;DHT22;2166;49.926;8.608;2022-11-06T06:04:37;3.30;84.10
4306;DHT22;2166;49.926;8.608;2022-11-06T06:07:05;3.30;84.40
4306;DHT22;2166;49.926;8.608;2022-11-06T06:09:35;3.40;84.40
4306;DHT22;2166;49.926;8.608;2022-11-06T06:12:04;3.30;84.40
4306;DHT22;2166;49.926;8.608;2022-11-06T06:14:32;3.30;84.30
4306;DHT22;2166;49.926;8.608;2022-11-06T06:17:00;3.10;84.10
4306;DHT22;2166;49.926;8.608;2022-11-06T06:19:28;3.10;84.00
4306;DHT22;2166;49.926;8.608;2022-11-06T06:21:56;3.00;84.00
4306;DHT22;2166;49.926;8.608;2022-11-06T06:24:24;2.90;83.90
4306;DHT22;2166;49.926;8.608;2022-11-06T06:26:53;2.90;84.00
4306;DHT22;2166;49.926;8.608;2022-11-06T06:29:21;2.90;84.10
4306;DHT22;2166;49.926;8.608;2022-11-06T06:31:49;2.90;84.10
4306;DHT22;2166;49.926;8.608;2022-11-06T06:34:17;2.90;84.20
4306;DHT22;2166;49.926;8.608;2022-11-06T06:36:47;3.00;84.30
4306;DHT22;2166;49.926;8.608;2022-11-06T06:39:15;3.00;84.40
4306;DHT22;2166;49.926;8.608;2022-11-06T06:41:44;3.00;84.50
4306;DHT22;2166;49.926;8.608;2022-11-06T06:44:14;3.10;84.70
4306;DHT22;2166;49.926;8.608;2022-11-06T06:46:42;3.30;84.90
4306;DHT22;2166;49.926;8.608;2022-11-06T06:49:10;3.50;85.00
4306;DHT22;2166;49.926;8.608;2022-11-06T06:51:38;3.60;85.10
4306;DHT22;2166;49.926;8.608;2022-11-06T06:54:06;3.80;85.10
4306;DHT22;2166;49.926;8.608;2022-11-06T06:56:34;4.10;85.10
4306;DHT22;2166;49.926;8.608;2022-11-06T06:59:02;4.50;85.20
4306;DHT22;2166;49.926;8.608;2022-11-06T07:01:31;4.90;84.60
4306;DHT22;2166;49.926;8.608;2022-11-06T07:03:59;5.30;84.60
4306;DHT22;2166;49.926;8.608;2022-11-06T07:06:30;5.80;84.60
4306;DHT22;2166;49.926;8.608;2022-11-06T07:08:58;6.20;84.80
4306;DHT22;2166;49.926;8.608;2022-11-06T07:11:26;6.70;84.30
4306;DHT22;2166;49.926;8.608;2022-11-06T07:13:54;7.30;83.70
4306;DHT22;2166;49.926;8.608;2022-11-06T07:16:21;8.10;83.20
4306;DHT22;2166;49.926;8.608;2022-11-06T07:18:55;9.00;82.40
4306;DHT22;2166;49.926;8.608;2022-11-06T07:21:23;9.90;81.80
4306;DHT22;2166;49.926;8.608;2022-11-06T07:23:51;10.80;80.90
4306;DHT22;2166;49.926;8.608;2022-11-06T07:26:19;11.50;79.30
4306;DHT22;2166;49.926;8.608;2022-11-06T07:28:47;12.20;77.80
4306;DHT22;2166;49.926;8.608;2022-11-06T07:31:15;12.90;76.70
4306;DHT22;2166;49.926;8.608;2022-11-06T07:33:43;13.60;75.60
4306;DHT22;2166;49.926;8.608;2022-11-06T07:36:12;14.40;74.20
4306;DHT22;2166;49.926;8.608;2022-11-06T07:38:41;15.10;73.20
4306;DHT22;2166;49.926;8.608;2022-11-06T07:41:09;15.80;70.80
4306;DHT22;2166;49.926;8.608;2022-11-06T07:43:38;16.40;68.20
4306;DHT22;2166;49.926;8.608;2022-11-06T07:46:07;17.10;67.60
4306;DHT22;2166;49.926;8.608;2022-11-06T07:48:35;17.60;65.30
4306;DHT22;2166;49.926;8.608;2022-11-06T07:51:04;18.10;64.60
4306;DHT22;2166;49.926;8.608;2022-11-06T07:53:33;18.70;64.10
4306;DHT22;2166;49.926;8.608;2022-11-06T07:56:01;19.30;62.10
4306;DHT22;2166;49.926;8.608;2022-11-06T07:58:30;20.00;61.60
4306;DHT22;2166;49.926;8.608;2022-11-06T08:01:02;20.50;59.40
4306;DHT22;2166;49.926;8.608;2022-11-06T08:03:31;20.70;56.50
4306;DHT22;2166;49.926;8.608;2022-11-06T08:06:01;21.00;58.50
4306;DHT22;2166;49.926;8.608;2022-11-06T08:08:30;21.40;59.40
4306;DHT22;2166;49.926;8.608;2022-11-06T08:11:01;21.90;56.10
4306;DHT22;2166;49.926;8.608;2022-11-06T08:13:29;22.10;53.30
4306;DHT22;2166;49.926;8.608;2022-11-06T08:16:02;22.30;51.50
4306;DHT22;2166;49.926;8.608;2022-11-06T08:18:30;22.40;50.90
4306;DHT22;2166;49.926;8.608;2022-11-06T08:20:58;22.80;48.70
4306;DHT22;2166;49.926;8.608;2022-11-06T08:23:26;23.20;48.50
4306;DHT22;2166;49.926;8.608;2022-11-06T08:25:55;23.70;47.00
4306;DHT22;2166;49.926;8.608;2022-11-06T08:28:24;24.00;45.90
4306;DHT22;2166;49.926;8.608;2022-11-06T08:30:53;24.30;45.50
4306;DHT22;2166;49.926;8.608;2022-11-06T08:33:21;24.60;44.60
4306;DHT22;2166;49.926;8.608;2022-11-06T08:35:50;24.70;44.20
4306;DHT22;2166;49.926;8.608;2022-11-06T08:38:18;24.60;44.30
4306;DHT22;2166;49.926;8.608;2022-11-06T08:40:46;24.70;44.60
4306;DHT22;2166;49.926;8.608;2022-11-06T08:43:19;24.50;44.20
4306;DHT22;2166;49.926;8.608;2022-11-06T08:45:51;24.60;44.20
4306;DHT22;2166;49.926;8.608;2022-11-06T08:48:19;24.80;44.30
4306;DHT22;2166;49.926;8.608;2022-11-06T08:50:47;25.20;43.40
4306;DHT22;2166;49.926;8.608;2022-11-06T08:53:15;25.70;42.50
4306;DHT22;2166;49.926;8.608;2022-11-06T08:55:43;26.20;41.70
4306;DHT22;2166;49.926;8.608;2022-11-06T08:58:11;26.30;40.50
4306;DHT22;2166;49.926;8.608;2022-11-06T09:00:40;26.40;40.80
4306;DHT22;2166;49.926;8.608;2022-11-06T09:03:14;26.50;41.40
4306;DHT22;2166;49.926;8.608;2022-11-06T09:05:44;26.80;41.00
4306;DHT22;2166;49.926;8.608;2022-11-06T09:08:13;27.00;40.00
4306;DHT22;2166;49.926;8.608;2022-11-06T09:10:41;27.10;41.10
4306;DHT22;2166;49.926;8.608;2022-11-06T09:13:10;27.10;39.30
4306;DHT22;2166;49.926;8.608;2022-11-06T09:15:42;26.80;40.60
4306;DHT22;2166;49.926;8.608;2022-11-06T09:18:12;26.90;41.40
4306;DHT22;2166;49.926;8.608;2022-11-06T09:20:40;27.00;40.40
4306;DHT22;2166;49.926;8.608;2022-11-06T09:23:08;26.70;39.90
4306;DHT22;2166;49.926;8.608;2022-11-06T09:25:37;26.70;40.40
4306;DHT22;2166;49.926;8.608;2022-11-06T09:28:05;26.30;40.80
4306;DHT22;2166;49.926;8.608;2022-11-06T09:30:34;25.10;42.10
4306;DHT22;2166;49.926;8.608;2022-11-06T09:33:02;24.80;43.60
4306;DHT22;2166;49.926;8.608;2022-11-06T09:35:37;24.70;43.70
4306;DHT22;2166;49.926;8.608;2022-11-06T09:38:06;24.30;43.90
4306;DHT22;2166;49.926;8.608;2022-11-06T09:40:35;24.00;44.40
4306;DHT22;2166;49.926;8.608;2022-11-06T09:43:16;23.80;45.00
4306;DHT22;2166;49.926;8.608;2022-11-06T09:46:09;23.50;45.40
4306;DHT22;2166;49.926;8.608;2022-11-06T09:48:40;23.00;46.40
4306;DHT22;2166;49.926;8.608;2022-11-06T09:51:13;22.90;47.40
4306;DHT22;2166;49.926;8.608;2022-11-06T09:53:44;22.90;46.30
4306;DHT22;2166;49.926;8.608;2022-11-06T09:56:14;22.60;47.90
4306;DHT22;2166;49.926;8.608;2022-11-06T09:58:43;22.70;48.20
4306;DHT22;2166;49.926;8.608;2022-11-06T10:01:12;22.60;47.90
4306;DHT22;2166;49.926;8.608;2022-11-06T10:03:51;22.60;48.70
4306;DHT22;2166;49.926;8.608;2022-11-06T10:06:23;23.40;47.50
4306;DHT22;2166;49.926;8.608;2022-11-06T10:08:51;24.40;45.20
4306;DHT22;2166;49.926;8.608;2022-11-06T10:11:25;25.30;43.60
4306;DHT22;2166;49.926;8.608;2022-11-06T10:13:56;25.70;42.60
4306;DHT22;2166;49.926;8.608;2022-11-06T10:16:29;25.30;43.40
4306;DHT22;2166;49.926;8.608;2022-11-06T10:19:05;25.00;43.30
4306;DHT22;2166;49.926;8.608;2022-11-06T10:21:37;24.90;44.40
4306;DHT22;2166;49.926;8.608;2022-11-06T10:24:10;24.90;44.30
4306;DHT22;2166;49.926;8.608;2022-11-06T10:26:44;25.30;44.30
4306;DHT22;2166;49.926;8.608;2022-11-06T10:29:25;25.50;42.80
4306;DHT22;2166;49.926;8.608;2022-11-06T10:32:00;26.10;43.20
4306;DHT22;2166;49.926;8.608;2022-11-06T10:34:32;26.90;41.90
4306;DHT22;2166;49.926;8.608;2022-11-06T10:37:04;27.50;40.30
4306;DHT22;2166;49.926;8.608;2022-11-06T10:39:35;28.20;40.30
4306;DHT22;2166;49.926;8.608;2022-11-06T10:42:04;28.60;39.70
4306;DHT22;2166;49.926;8.608;2022-11-06T10:44:35;29.20;38.40
4306;DHT22;2166;49.926;8.608;2022-11-06T10:47:05;29.70;37.70
4306;DHT22;2166;49.926;8.608;2022-11-06T10:49:38;29.80;37.60
4306;DHT22;2166;49.926;8.608;2022-11-06T10:52:13;30.10;37.30
4306;DHT22;2166;49.926;8.608;2022-11-06T10:54:47;30.60;36.30
4306;DHT22;2166;49.926;8.608;2022-11-06T10:57:20;30.80;36.50
4306;DHT22;2166;49.926;8.608;2022-11-06T10:59:50;30.50;36.60
4306;DHT22;2166;49.926;8.608;2022-11-06T11:02:21;30.30;36.50
4306;DHT22;2166;49.926;8.608;2022-11-06T11:04:50;30.60;36.10
4306;DHT22;2166;49.926;8.608;2022-11-06T11:07:27;30.90;35.70
4306;DHT22;2166;49.926;8.608;2022-11-06T11:09:56;31.20;35.80
4306;DHT22;2166;49.926;8.608;2022-11-06T11:12:24;31.20;35.90
4306;DHT22;2166;49.926;8.608;2022-11-06T11:17:40;31.90;34.60
4306;DHT22;2166;49.926;8.608;2022-11-06T11:20:27;31.90;34.20
4306;DHT22;2166;49.926;8.608;2022-11-06T11:25:50;31.90;33.90
4306;DHT22;2166;49.926;8.608;2022-11-06T11:28:20;31.50;33.80
4306;DHT22;2166;49.926;8.608;2022-11-06T11:30:50;31.00;34.30
4306;DHT22;2166;49.926;8.608;2022-11-06T11:33:18;31.00;34.70
4306;DHT22;2166;49.926;8.608;2022-11-06T11:35:47;31.00;34.30
4306;DHT22;2166;49.926;8.608;2022-11-06T11:38:17;30.90;34.50
4306;DHT22;2166;49.926;8.608;2022-11-06T11:40:48;30.90;34.20
4306;DHT22;2166;49.926;8.608;2022-11-06T11:43:22;31.00;34.30
4306;DHT22;2166;49.926;8.608;2022-11-06T11:46:04;30.10;35.60
4306;DHT22;2166;49.926;8.608;2022-11-06T11:48:42;30.10;36.20
4306;DHT22;2166;49.926;8.608;2022-11-06T11:51:12;30.80;35.50
4306;DHT22;2166;49.926;8.608;2022-11-06T11:53:42;31.20;34.60
4306;DHT22;2166;49.926;8.608;2022-11-06T11:56:12;31.80;34.30
4306;DHT22;2166;49.926;8.608;2022-11-06T11:58:46;31.90;34.10
4306;DHT22;2166;49.926;8.608;2022-11-06T12:01:15;31.30;34.80
4306;DHT22;2166;49.926;8.608;2022-11-06T12:03:44;30.10;35.80
4306;DHT22;2166;49.926;8.608;2022-11-06T12:06:16;28.50;37.00
4306;DHT22;2166;49.926;8.608;2022-11-06T12:08:45;27.00;38.40
4306;DHT22;2166;49.926;8.608;2022-11-06T12:11:15;25.70;40.80
4306;DHT22;2166;49.926;8.608;2022-11-06T12:16:30;23.40;44.10
4306;DHT22;2166;49.926;8.608;2022-11-06T12:18:58;22.40;46.10
4306;DHT22;2166;49.926;8.608;2022-11-06T12:21:31;21.80;47.20
4306;DHT22;2166;49.926;8.608;2022-11-06T12:24:00;21.20;48.40
4306;DHT22;2166;49.926;8.608;2022-11-06T12:26:31;20.80;49.40
4306;DHT22;2166;49.926;8.608;2022-11-06T12:29:03;20.60;49.70
4306;DHT22;2166;49.926;8.608;2022-11-06T12:31:36;20.60;50.60
4306;DHT22;2166;49.926;8.608;2022-11-06T12:34:06;20.50;50.80
4306;DHT22;2166;49.926;8.608;2022-11-06T12:36:45;20.10;52.10
4306;DHT22;2166;49.926;8.608;2022-11-06T12:39:15;19.90;53.90
4306;DHT22;2166;49.926;8.608;2022-11-06T12:41:45;20.00;53.00
4306;DHT22;2166;49.926;8.608;2022-11-06T12:44:15;20.00;53.60
4306;DHT22;2166;49.926;8.608;2022-11-06T12:46:46;20.10;53.20
4306;DHT22;2166;49.926;8.608;2022-11-06T12:49:19;20.10;53.10
4306;DHT22;2166;49.926;8.608;2022-11-06T12:51:53;20.00;54.00
4306;DHT22;2166;49.926;8.608;2022-11-06T12:54:27;20.50;53.70
4306;DHT22;2166;49.926;8.608;2022-11-06T12:57:00;20.60;52.70
4306;DHT22;2166;49.926;8.608;2022-11-06T12:59:34;20.50;52.60
4306;DHT22;2166;49.926;8.608;2022-11-06T13:02:10;20.40;51.40
4306;DHT22;2166;49.926;8.608;2022-11-06T13:04:48;20.10;51.60
4306;DHT22;2166;49.926;8.608;2022-11-06T13:10:09;19.70;52.60
4306;DHT22;2166;49.926;8.608;2022-11-06T13:12:41;19.40;53.80
4306;DHT22;2166;49.926;8.608;2022-11-06T13:15:17;19.20;53.50
4306;DHT22;2166;49.926;8.608;2022-11-06T13:17:50;19.00;53.80
4306;DHT22;2166;49.926;8.608;2022-11-06T13:20:23;18.70;55.00
4306;DHT22;2166;49.926;8.608;2022-11-06T13:22:55;18.50;55.30
4306;DHT22;2166;49.926;8.608;2022-11-06T13:25:27;18.40;56.00
4306;DHT22;2166;49.926;8.608;2022-11-06T13:28:06;18.50;55.60
4306;DHT22;2166;49.926;8.608;2022-11-06T13:30:36;18.40;55.60
4306;DHT22;2166;49.926;8.608;2022-11-06T13:33:11;18.40;56.00
4306;DHT22;2166;49.926;8.608;2022-11-06T13:35:42;18.30;56.30
4306;DHT22;2166;49.926;8.608;2022-11-06T13:38:12;18.20;57.30
4306;DHT22;2166;49.926;8.608;2022-11-06T13:40:43;18.10;58.10
4306;DHT22;2166;49.926;8.608;2022-11-06T13:43:14;17.90;58.40
4306;DHT22;2166;49.926;8.608;2022-11-06T13:45:45;17.70;59.00
4306;DHT22;2166;49.926;8.608;2022-11-06T13:48:19;17.60;58.90
4306;DHT22;2166;49.926;8.608;2022-11-06T13:50:50;17.50;58.90
4306;DHT22;2166;49.926;8.608;2022-11-06T13:53:22;17.20;60.00
4306;DHT22;2166;49.926;8.608;2022-11-06T13:55:57;17.00;60.80
4306;DHT22;2166;49.926;8.608;2022-11-06T14:01:19;16.20;62.60
4306;DHT22;2166;49.926;8.608;2022-11-06T14:04:07;15.80;64.10
4306;DHT22;2166;49.926;8.608;2022-11-06T14:06:40;15.50;65.40
4306;DHT22;2166;49.926;8.608;2022-11-06T14:09:11;15.00;65.80
4306;DHT22;2166;49.926;8.608;2022-11-06T14:11:42;14.60;66.80
4306;DHT22;2166;49.926;8.608;2022-11-06T14:14:11;14.20;67.60
4306;DHT22;2166;49.926;8.608;2022-11-06T14:16:40;14.00;68.50
4306;DHT22;2166;49.926;8.608;2022-11-06T14:19:13;13.90;69.40
4306;DHT22;2166;49.926;8.608;2022-11-06T14:21:46;13.70;69.10
4306;DHT22;2166;49.926;8.608;2022-11-06T14:24:16;13.50;69.30
4306;DHT22;2166;49.926;8.608;2022-11-06T14:26:45;13.20;69.80
4306;DHT22;2166;49.926;8.608;2022-11-06T14:32:00;13.10;70.20
4306;DHT22;2166;49.926;8.608;2022-11-06T14:34:30;13.00;70.20
4306;DHT22;2166;49.926;8.608;2022-11-06T14:37:15;12.90;70.30
4306;DHT22;2166;49.926;8.608;2022-11-06T14:40:04;12.80;70.60
4306;DHT22;2166;49.926;8.608;2022-11-06T14:42:32;12.80;70.50
4306;DHT22;2166;49.926;8.608;2022-11-06T14:45:06;12.80;70.50
4306;DHT22;2166;49.926;8.608;2022-11-06T14:47:36;12.80;70.30
4306;DHT22;2166;49.926;8.608;2022-11-06T14:50:08;12.80;70.40
4306;DHT22;2166;49.926;8.608;2022-11-06T14:52:52;12.80;70.50
4306;DHT22;2166;49.926;8.608;2022-11-06T14:55:28;12.90;70.60
4306;DHT22;2166;49.926;8.608;2022-11-06T14:57:57;12.90;70.40
4306;DHT22;2166;49.926;8.608;2022-11-06T15:00:37;12.90;70.70
4306;DHT22;2166;49.926;8.608;2022-11-06T15:03:13;12.90;70.70
4306;DHT22;2166;49.926;8.608;2022-11-06T15:05:44;12.90;70.50
4306;DHT22;2166;49.926;8.608;2022-11-06T15:11:05;12.90;70.60
4306;DHT22;2166;49.926;8.608;2022-11-06T15:13:33;12.90;70.70
4306;DHT22;2166;49.926;8.608;2022-11-06T15:16:03;12.80;70.80
4306;DHT22;2166;49.926;8.608;2022-11-06T15:18:33;12.80;70.80
4306;DHT22;2166;49.926;8.608;2022-11-06T15:21:06;12.80;70.90
4306;DHT22;2166;49.926;8.608;2022-11-06T15:23:38;12.70;70.90
4306;DHT22;2166;49.926;8.608;2022-11-06T15:26:13;12.50;71.00
4306;DHT22;2166;49.926;8.608;2022-11-06T15:28:43;12.40;71.00
4306;DHT22;2166;49.926;8.608;2022-11-06T15:31:12;12.30;71.10
4306;DHT22;2166;49.926;8.608;2022-11-06T15:33:45;12.40;71.20
4306;DHT22;2166;49.926;8.608;2022-11-06T15:36:26;12.40;71.10
4306;DHT22;2166;49.926;8.608;2022-11-06T15:38:56;12.40;71.20
4306;DHT22;2166;49.926;8.608;2022-11-06T15:41:24;12.20;71.40
4306;DHT22;2166;49.926;8.608;2022-11-06T15:43:53;12.20;71.40
4306;DHT22;2166;49.926;8.608;2022-11-06T15:46:23;12.10;71.30
4306;DHT22;2166;49.926;8.608;2022-11-06T15:49:05;12.10;71.50
4306;DHT22;2166;49.926;8.608;2022-11-06T15:51:37;12.00;71.60
4306;DHT22;2166;49.926;8.608;2022-11-06T15:54:11;11.90;71.90
4306;DHT22;2166;49.926;8.608;2022-11-06T15:56:40;11.80;72.10
4306;DHT22;2166;49.926;8.608;2022-11-06T15:59:09;11.70;72.40
4306;DHT22;2166;49.926;8.608;2022-11-06T16:01:38;11.80;72.60
4306;DHT22;2166;49.926;8.608;2022-11-06T16:04:09;11.80;72.50
4306;DHT22;2166;49.926;8.608;2022-11-06T16:06:43;11.80;72.40
4306;DHT22;2166;49.926;8.608;2022-11-06T16:09:14;11.70;72.90
4306;DHT22;2166;49.926;8.608;2022-11-06T16:11:44;11.70;73.00
4306;DHT22;2166;49.926;8.608;2022-11-06T16:14:13;11.60;73.00
4306;DHT22;2166;49.926;8.608;2022-11-06T16:16:43;11.60;73.10
4306;DHT22;2166;49.926;8.608;2022-11-06T16:19:19;11.50;73.30
4306;DHT22;2166;49.926;8.608;2022-11-06T16:21:50;11.50;73.50
4306;DHT22;2166;49.926;8.608;2022-11-06T16:24:22;11.40;73.50
4306;DHT22;2166;49.926;8.608;2022-11-06T16:26:51;11.30;73.70
4306;DHT22;2166;49.926;8.608;2022-11-06T16:29:20;11.20;73.90
4306;DHT22;2166;49.926;8.608;2022-11-06T16:31:56;11.20;74.10
4306;DHT22;2166;49.926;8.608;2022-11-06T16:34:33;11.10;74.20
4306;DHT22;2166;49.926;8.608;2022-11-06T16:37:03;11.10;74.30
4306;DHT22;2166;49.926;8.608;2022-11-06T16:39:32;11.10;74.40
4306;DHT22;2166;49.926;8.608;2022-11-06T16:42:25;11.20;74.50
4306;DHT22;2166;49.926;8.608;2022-11-06T16:45:01;11.20;74.50
4306;DHT22;2166;49.926;8.608;2022-11-06T16:47:30;11.20;74.60
4306;DHT22;2166;49.926;8.608;2022-11-06T16:49:58;11.10;74.50
4306;DHT22;2166;49.926;8.608;2022-11-06T16:52:29;11.10;74.50
4306;DHT22;2166;49.926;8.608;2022-11-06T16:54:59;11.20;74.40